sensor_id;sensor_type;location;lat;lon;timestamp;pressure;altitude;pressure_sealevel;temperature;humidity
78892;BME280;68368;51.728;5.248;2024-02-21T00:01:17;102213.70;;;8.75;100.00
78892;BME280;68368;51.728;5.248;2024-02-21T00:03:20;102212.13;;;8.76;100.00
78892;BME280;68368;51.728;5.248;2024-02-21T00:05:23;102211.59;;;8.76;100.00
78892;BME280;68368;51.728;5.248;2024-02-21T00:07:26;102213.91;;;8.77;99.95
78892;BME280;68368;51.728;5.248;2024-02-21T00:09:29;102211.78;;;8.77;99.78
78892;BME280;68368;51.728;5.248;2024-02-21T00:11:32;102209.31;;;8.77;99.82
78892;BME280;68368;51.728;5.248;2024-02-21T00:13:39;102208.42;;;8.77;99.75
78892;BME280;68368;51.728;5.248;2024-02-21T00:15:42;102210.55;;;8.78;99.73
78892;BME280;68368;51.728;5.248;2024-02-21T00:17:45;102196.06;;;8.79;99.70
78892;BME280;68368;51.728;5.248;2024-02-21T00:19:50;102204.92;;;8.79;99.61
78892;BME280;68368;51.728;5.248;2024-02-21T00:21:53;102205.81;;;8.79;99.57
78892;BME280;68368;51.728;5.248;2024-02-21T00:23:57;102195.17;;;8.79;99.48
78892;BME280;68368;51.728;5.248;2024-02-21T00:26:03;102186.16;;;8.80;99.36
78892;BME280;68368;51.728;5.248;2024-02-21T00:28:09;102180.15;;;8.80;99.17
78892;BME280;68368;51.728;5.248;2024-02-21T00:30:14;102174.66;;;8.80;98.95
78892;BME280;68368;51.728;5.248;2024-02-21T00:32:17;102172.17;;;8.79;98.76
78892;BME280;68368;51.728;5.248;2024-02-21T00:34:30;102173.25;;;8.80;98.82
78892;BME280;68368;51.728;5.248;2024-02-21T00:36:33;102163.68;;;8.80;98.85
78892;BME280;68368;51.728;5.248;2024-02-21T00:38:36;102162.44;;;8.79;98.85
78892;BME280;68368;51.728;5.248;2024-02-21T00:40:42;102160.48;;;8.79;98.34
78892;BME280;68368;51.728;5.248;2024-02-21T00:42:46;102151.41;;;8.77;98.06
78892;BME280;68368;51.728;5.248;2024-02-21T00:44:49;102150.51;;;8.75;97.97
78892;BME280;68368;51.728;5.248;2024-02-21T00:46:52;102140.73;;;8.73;98.07
78892;BME280;68368;51.728;5.248;2024-02-21T00:49:01;102141.54;;;8.69;98.21
78892;BME280;68368;51.728;5.248;2024-02-21T00:51:08;102138.98;;;8.65;98.45
78892;BME280;68368;51.728;5.248;2024-02-21T00:53:11;102140.34;;;8.62;98.37
78892;BME280;68368;51.728;5.248;2024-02-21T00:55:13;102137.60;;;8.58;98.44
78892;BME280;68368;51.728;5.248;2024-02-21T00:57:16;102135.41;;;8.55;98.64
78892;BME280;68368;51.728;5.248;2024-02-21T00:59:23;102138.73;;;8.52;98.95
78892;BME280;68368;51.728;5.248;2024-02-21T01:01:26;102144.73;;;8.51;98.97
78892;BME280;68368;51.728;5.248;2024-02-21T01:03:29;102145.05;;;8.50;99.19
78892;BME280;68368;51.728;5.248;2024-02-21T01:05:32;102146.66;;;8.50;99.33
78892;BME280;68368;51.728;5.248;2024-02-21T01:07:35;102145.54;;;8.47;99.65
78892;BME280;68368;51.728;5.248;2024-02-21T01:09:38;102142.30;;;8.45;99.56
78892;BME280;68368;51.728;5.248;2024-02-21T01:11:41;102143.52;;;8.44;99.62
78892;BME280;68368;51.728;5.248;2024-02-21T01:13:44;102147.38;;;8.42;99.86
78892;BME280;68368;51.728;5.248;2024-02-21T01:15:47;102145.92;;;8.41;99.92
78892;BME280;68368;51.728;5.248;2024-02-21T01:17:50;102145.54;;;8.39;100.00
78892;BME280;68368;51.728;5.248;2024-02-21T01:19:54;102140.36;;;8.37;100.00
78892;BME280;68368;51.728;5.248;2024-02-21T01:21:57;102136.45;;;8.36;100.00
78892;BME280;68368;51.728;5.248;2024-02-21T01:24:00;102130.77;;;8.35;100.00
78892;BME280;68368;51.728;5.248;2024-02-21T01:26:04;102127.73;;;8.34;100.00
78892;BME280;68368;51.728;5.248;2024-02-21T01:28:09;102122.92;;;8.32;100.00
78892;BME280;68368;51.728;5.248;2024-02-21T01:30:16;102119.54;;;8.32;100.00
78892;BME280;68368;51.728;5.248;2024-02-21T01:32:20;102119.69;;;8.30;100.00
78892;BME280;68368;51.728;5.248;2024-02-21T01:34:23;102114.54;;;8.29;100.00
78892;BME280;68368;51.728;5.248;2024-02-21T01:36:26;102111.50;;;8.28;100.00
78892;BME280;68368;51.728;5.248;2024-02-21T01:38:32;102110.77;;;8.26;100.00
78892;BME280;68368;51.728;5.248;2024-02-21T01:40:35;102110.55;;;8.24;100.00
78892;BME280;68368;51.728;5.248;2024-02-21T01:42:40;102107.52;;;8.23;100.00
78892;BME280;68368;51.728;5.248;2024-02-21T01:44:46;102106.45;;;8.23;100.00
78892;BME280;68368;51.728;5.248;2024-02-21T01:46:49;102108.04;;;8.22;100.00
78892;BME280;68368;51.728;5.248;2024-02-21T01:48:55;102113.89;;;8.23;100.00
78892;BME280;68368;51.728;5.248;2024-02-21T01:51:05;102114.45;;;8.24;100.00
78892;BME280;68368;51.728;5.248;2024-02-21T01:53:11;102114.09;;;8.25;100.00
78892;BME280;68368;51.728;5.248;2024-02-21T01:55:17;102111.63;;;8.25;100.00
78892;BME280;68368;51.728;5.248;2024-02-21T01:57:20;102111.63;;;8.25;100.00
78892;BME280;68368;51.728;5.248;2024-02-21T01:59:24;102112.68;;;8.25;100.00
78892;BME280;68368;51.728;5.248;2024-02-21T02:01:27;102109.32;;;8.25;100.00
78892;BME280;68368;51.728;5.248;2024-02-21T02:03:31;102109.48;;;8.24;100.00
78892;BME280;68368;51.728;5.248;2024-02-21T02:05:34;102107.35;;;8.23;100.00
78892;BME280;68368;51.728;5.248;2024-02-21T02:07:37;102102.05;;;8.24;100.00
78892;BME280;68368;51.728;5.248;2024-02-21T02:09:41;102100.30;;;8.25;100.00
78892;BME280;68368;51.728;5.248;2024-02-21T02:11:44;102097.30;;;8.25;100.00
78892;BME280;68368;51.728;5.248;2024-02-21T02:13:47;102089.20;;;8.27;100.00
78892;BME280;68368;51.728;5.248;2024-02-21T02:15:51;102083.20;;;8.28;100.00
78892;BME280;68368;51.728;5.248;2024-02-21T02:17:54;102074.73;;;8.29;100.00
78892;BME280;68368;51.728;5.248;2024-02-21T02:19:57;102074.39;;;8.29;100.00
78892;BME280;68368;51.728;5.248;2024-02-21T02:22:06;102074.77;;;8.30;100.00
78892;BME280;68368;51.728;5.248;2024-02-21T02:24:12;102073.70;;;8.30;100.00
78892;BME280;68368;51.728;5.248;2024-02-21T02:26:16;102069.80;;;8.30;100.00
78892;BME280;68368;51.728;5.248;2024-02-21T02:28:20;102072.30;;;8.32;100.00
78892;BME280;68368;51.728;5.248;2024-02-21T02:30:24;102068.08;;;8.33;100.00
78892;BME280;68368;51.728;5.248;2024-02-21T02:32:30;102060.83;;;8.33;100.00
78892;BME280;68368;51.728;5.248;2024-02-21T02:34:35;102067.40;;;8.34;100.00
78892;BME280;68368;51.728;5.248;2024-02-21T02:36:40;102063.52;;;8.34;100.00
78892;BME280;68368;51.728;5.248;2024-02-21T02:38:43;102058.89;;;8.34;100.00
78892;BME280;68368;51.728;5.248;2024-02-21T02:40:46;102055.19;;;8.34;100.00
78892;BME280;68368;51.728;5.248;2024-02-21T02:42:50;102052.52;;;8.33;100.00
78892;BME280;68368;51.728;5.248;2024-02-21T02:44:53;102055.70;;;8.32;100.00
78892;BME280;68368;51.728;5.248;2024-02-21T02:46:56;102048.07;;;8.32;100.00
78892;BME280;68368;51.728;5.248;2024-02-21T02:48:59;102046.63;;;8.30;100.00
78892;BME280;68368;51.728;5.248;2024-02-21T02:51:03;102044.50;;;8.30;100.00
78892;BME280;68368;51.728;5.248;2024-02-21T02:53:07;102043.08;;;8.29;100.00
78892;BME280;68368;51.728;5.248;2024-02-21T02:55:10;102048.21;;;8.29;100.00
78892;BME280;68368;51.728;5.248;2024-02-21T02:57:13;102046.80;;;8.30;100.00
78892;BME280;68368;51.728;5.248;2024-02-21T02:59:16;102045.05;;;8.31;100.00
78892;BME280;68368;51.728;5.248;2024-02-21T03:01:19;102041.86;;;8.32;100.00
78892;BME280;68368;51.728;5.248;2024-02-21T03:03:22;102037.11;;;8.32;100.00
78892;BME280;68368;51.728;5.248;2024-02-21T03:05:26;102035.36;;;8.32;100.00
78892;BME280;68368;51.728;5.248;2024-02-21T03:07:29;102035.01;;;8.34;100.00
78892;BME280;68368;51.728;5.248;2024-02-21T03:09:32;102032.04;;;8.35;100.00
78892;BME280;68368;51.728;5.248;2024-02-21T03:11:36;102031.52;;;8.36;100.00
78892;BME280;68368;51.728;5.248;2024-02-21T03:13:39;102031.52;;;8.37;100.00
78892;BME280;68368;51.728;5.248;2024-02-21T03:15:42;102028.34;;;8.36;100.00
78892;BME280;68368;51.728;5.248;2024-02-21T03:17:45;102028.89;;;8.37;100.00
78892;BME280;68368;51.728;5.248;2024-02-21T03:19:50;102024.45;;;8.36;100.00
78892;BME280;68368;51.728;5.248;2024-02-21T03:21:53;102020.73;;;8.36;100.00
78892;BME280;68368;51.728;5.248;2024-02-21T03:23:56;102018.79;;;8.36;100.00
78892;BME280;68368;51.728;5.248;2024-02-21T03:26:00;102015.40;;;8.35;100.00
78892;BME280;68368;51.728;5.248;2024-02-21T03:28:03;102004.45;;;8.35;100.00
78892;BME280;68368;51.728;5.248;2024-02-21T03:30:09;101998.95;;;8.35;100.00
78892;BME280;68368;51.728;5.248;2024-02-21T03:32:12;102003.37;;;8.35;100.00
78892;BME280;68368;51.728;5.248;2024-02-21T03:34:14;102010.25;;;8.34;100.00
78892;BME280;68368;51.728;5.248;2024-02-21T03:36:18;102007.59;;;8.34;100.00
78892;BME280;68368;51.728;5.248;2024-02-21T03:38:29;102002.66;;;8.35;100.00
78892;BME280;68368;51.728;5.248;2024-02-21T03:40:32;101990.29;;;8.35;100.00
78892;BME280;68368;51.728;5.248;2024-02-21T03:42:35;101987.11;;;8.35;100.00
78892;BME280;68368;51.728;5.248;2024-02-21T03:44:46;101986.38;;;8.35;100.00
78892;BME280;68368;51.728;5.248;2024-02-21T03:46:49;101989.40;;;8.35;100.00
78892;BME280;68368;51.728;5.248;2024-02-21T03:48:52;101983.56;;;8.36;100.00
78892;BME280;68368;51.728;5.248;2024-02-21T03:50:56;101976.67;;;8.35;100.00
78892;BME280;68368;51.728;5.248;2024-02-21T03:52:59;101983.38;;;8.35;100.00
78892;BME280;68368;51.728;5.248;2024-02-21T03:55:12;101977.91;;;8.35;100.00
78892;BME280;68368;51.728;5.248;2024-02-21T03:57:16;101975.79;;;8.37;100.00
78892;BME280;68368;51.728;5.248;2024-02-21T03:59:19;101973.67;;;8.37;99.99
78892;BME280;68368;51.728;5.248;2024-02-21T04:01:22;101974.55;;;8.36;100.00
78892;BME280;68368;51.728;5.248;2024-02-21T04:03:29;101972.05;;;8.34;99.96
78892;BME280;68368;51.728;5.248;2024-02-21T04:05:32;101971.11;;;8.32;99.87
78892;BME280;68368;51.728;5.248;2024-02-21T04:07:35;101977.80;;;8.30;100.00
78892;BME280;68368;51.728;5.248;2024-02-21T04:09:38;101982.19;;;8.28;100.00
78892;BME280;68368;51.728;5.248;2024-02-21T04:11:41;101983.41;;;8.27;100.00
78892;BME280;68368;51.728;5.248;2024-02-21T04:13:44;101986.06;;;8.27;100.00
78892;BME280;68368;51.728;5.248;2024-02-21T04:15:49;101987.27;;;8.25;100.00
78892;BME280;68368;51.728;5.248;2024-02-21T04:17:52;101978.23;;;8.24;99.97
78892;BME280;68368;51.728;5.248;2024-02-21T04:20:02;101975.05;;;8.24;100.00
78892;BME280;68368;51.728;5.248;2024-02-21T04:22:05;101969.19;;;8.23;100.00
78892;BME280;68368;51.728;5.248;2024-02-21T04:24:09;101968.27;;;8.22;100.00
78892;BME280;68368;51.728;5.248;2024-02-21T04:26:12;101965.09;;;8.21;100.00
78892;BME280;68368;51.728;5.248;2024-02-21T04:28:15;101964.18;;;8.21;100.00
78892;BME280;68368;51.728;5.248;2024-02-21T04:30:19;101960.97;;;8.19;100.00
78892;BME280;68368;51.728;5.248;2024-02-21T04:32:22;101968.20;;;8.17;100.00
78892;BME280;68368;51.728;5.248;2024-02-21T04:34:25;101970.83;;;8.16;100.00
78892;BME280;68368;51.728;5.248;2024-02-21T04:36:29;101969.77;;;8.16;100.00
78892;BME280;68368;51.728;5.248;2024-02-21T04:38:32;101970.67;;;8.18;100.00
78892;BME280;68368;51.728;5.248;2024-02-21T04:40:35;101972.83;;;8.19;100.00
78892;BME280;68368;51.728;5.248;2024-02-21T04:42:43;101967.35;;;8.20;100.00
78892;BME280;68368;51.728;5.248;2024-02-21T04:44:46;101963.29;;;8.20;100.00
78892;BME280;68368;51.728;5.248;2024-02-21T04:46:52;101956.96;;;8.21;100.00
78892;BME280;68368;51.728;5.248;2024-02-21T04:48:55;101955.70;;;8.21;100.00
78892;BME280;68368;51.728;5.248;2024-02-21T04:50:58;101951.08;;;8.19;100.00
78892;BME280;68368;51.728;5.248;2024-02-21T04:53:01;101952.99;;;8.18;100.00
78892;BME280;68368;51.728;5.248;2024-02-21T04:55:05;101949.80;;;8.17;100.00
78892;BME280;68368;51.728;5.248;2024-02-21T04:57:09;101948.06;;;8.18;100.00
78892;BME280;68368;51.728;5.248;2024-02-21T04:59:12;101940.45;;;8.18;100.00
78892;BME280;68368;51.728;5.248;2024-02-21T05:01:17;101934.61;;;8.19;100.00
78892;BME280;68368;51.728;5.248;2024-02-21T05:03:20;101930.55;;;8.18;100.00
78892;BME280;68368;51.728;5.248;2024-02-21T05:05:23;101927.33;;;8.16;100.00
78892;BME280;68368;51.728;5.248;2024-02-21T05:07:27;101924.30;;;8.14;100.00
78892;BME280;68368;51.728;5.248;2024-02-21T05:09:30;101922.83;;;8.11;100.00
78892;BME280;68368;51.728;5.248;2024-02-21T05:11:36;101925.45;;;8.10;100.00
78892;BME280;68368;51.728;5.248;2024-02-21T05:13:40;101922.77;;;8.08;100.00
78892;BME280;68368;51.728;5.248;2024-02-21T05:15:43;101923.83;;;8.08;100.00
78892;BME280;68368;51.728;5.248;2024-02-21T05:17:47;101922.57;;;8.07;100.00
78892;BME280;68368;51.728;5.248;2024-02-21T05:19:51;101914.77;;;8.06;100.00
78892;BME280;68368;51.728;5.248;2024-02-21T05:21:54;101912.80;;;8.05;100.00
78892;BME280;68368;51.728;5.248;2024-02-21T05:23:57;101904.27;;;8.03;100.00
78892;BME280;68368;51.728;5.248;2024-02-21T05:26:01;101905.49;;;8.02;100.00
78892;BME280;68368;51.728;5.248;2024-02-21T05:28:06;101900.53;;;8.01;100.00
78892;BME280;68368;51.728;5.248;2024-02-21T05:30:11;101896.97;;;7.99;100.00
78892;BME280;68368;51.728;5.248;2024-02-21T05:32:17;101887.55;;;7.97;100.00
78892;BME280;68368;51.728;5.248;2024-02-21T05:34:21;101890.31;;;7.92;100.00
78892;BME280;68368;51.728;5.248;2024-02-21T05:36:24;101886.71;;;7.90;100.00
78892;BME280;68368;51.728;5.248;2024-02-21T05:38:27;101885.11;;;7.88;100.00
78892;BME280;68368;51.728;5.248;2024-02-21T05:40:30;101879.77;;;7.86;100.00
78892;BME280;68368;51.728;5.248;2024-02-21T05:42:33;101874.25;;;7.84;100.00
78892;BME280;68368;51.728;5.248;2024-02-21T05:44:37;101869.46;;;7.83;100.00
78892;BME280;68368;51.728;5.248;2024-02-21T05:46:40;101869.61;;;7.82;100.00
78892;BME280;68368;51.728;5.248;2024-02-21T05:48:43;101865.54;;;7.81;100.00
78892;BME280;68368;51.728;5.248;2024-02-21T05:50:48;101861.08;;;7.79;100.00
78892;BME280;68368;51.728;5.248;2024-02-21T05:52:56;101860.89;;;7.79;100.00
78892;BME280;68368;51.728;5.248;2024-02-21T05:55:00;101860.03;;;7.80;100.00
78892;BME280;68368;51.728;5.248;2024-02-21T16:37:23;100521.39;;;7.98;100.00
78892;BME280;68368;51.728;5.248;2024-02-21T16:39:26;100519.63;;;7.96;100.00
78892;BME280;68368;51.728;5.248;2024-02-21T16:41:29;100513.80;;;7.94;100.00
78892;BME280;68368;51.728;5.248;2024-02-21T16:43:33;100501.80;;;7.92;100.00
78892;BME280;68368;51.728;5.248;2024-02-21T16:45:38;100504.98;;;7.90;100.00
78892;BME280;68368;51.728;5.248;2024-02-21T16:47:40;100498.64;;;7.89;100.00
78892;BME280;68368;51.728;5.248;2024-02-21T16:49:43;100492.09;;;7.87;100.00
78892;BME280;68368;51.728;5.248;2024-02-21T16:51:46;100495.29;;;7.86;100.00
78892;BME280;68368;51.728;5.248;2024-02-21T16:53:49;100484.86;;;7.85;100.00
78892;BME280;68368;51.728;5.248;2024-02-21T16:55:52;100485.23;;;7.83;100.00
78892;BME280;68368;51.728;5.248;2024-02-21T16:57:56;100483.98;;;7.82;100.00
78892;BME280;68368;51.728;5.248;2024-02-21T17:00:00;100478.16;;;7.82;100.00
78892;BME280;68368;51.728;5.248;2024-02-21T17:02:04;100480.11;;;7.81;100.00
78892;BME280;68368;51.728;5.248;2024-02-21T17:04:09;100478.70;;;7.81;100.00
78892;BME280;68368;51.728;5.248;2024-02-21T17:06:13;100471.45;;;7.81;100.00
78892;BME280;68368;51.728;5.248;2024-02-21T17:08:17;100465.45;;;7.81;100.00
78892;BME280;68368;51.728;5.248;2024-02-21T17:10:22;100459.44;;;7.81;100.00
78892;BME280;68368;51.728;5.248;2024-02-21T17:12:25;100456.27;;;7.80;100.00
78892;BME280;68368;51.728;5.248;2024-02-21T17:14:28;100455.91;;;7.80;100.00
78892;BME280;68368;51.728;5.248;2024-02-21T17:16:31;100446.36;;;7.79;100.00
78892;BME280;68368;51.728;5.248;2024-02-21T17:18:34;100449.02;;;7.79;100.00
78892;BME280;68368;51.728;5.248;2024-02-21T17:20:37;100442.65;;;7.79;100.00
78892;BME280;68368;51.728;5.248;2024-02-21T17:22:41;100442.48;;;7.79;100.00
78892;BME280;68368;51.728;5.248;2024-02-21T17:24:43;100438.77;;;7.78;100.00
78892;BME280;68368;51.728;5.248;2024-02-21T17:26:46;100435.25;;;7.78;100.00
78892;BME280;68368;51.728;5.248;2024-02-21T17:28:50;100433.29;;;7.79;100.00
78892;BME280;68368;51.728;5.248;2024-02-21T17:30:53;100427.98;;;7.79;100.00
78892;BME280;68368;51.728;5.248;2024-02-21T17:32:56;100420.73;;;7.79;100.00
78892;BME280;68368;51.728;5.248;2024-02-21T17:35:00;100423.92;;;7.79;100.00
78892;BME280;68368;51.728;5.248;2024-02-21T17:37:03;100414.55;;;7.79;100.00
78892;BME280;68368;51.728;5.248;2024-02-21T17:39:06;100409.97;;;7.79;100.00
78892;BME280;68368;51.728;5.248;2024-02-21T17:41:09;100407.14;;;7.79;100.00
78892;BME280;68368;51.728;5.248;2024-02-21T17:43:12;100397.95;;;7.79;100.00
78892;BME280;68368;51.728;5.248;2024-02-21T17:45:16;100404.67;;;7.79;100.00
78892;BME280;68368;51.728;5.248;2024-02-21T17:47:19;100398.14;;;7.78;100.00
78892;BME280;68368;51.728;5.248;2024-02-21T17:49:22;100403.09;;;7.78;100.00
78892;BME280;68368;51.728;5.248;2024-02-21T17:51:25;100385.78;;;7.77;100.00
78892;BME280;68368;51.728;5.248;2024-02-21T17:53:28;100380.83;;;7.77;100.00
78892;BME280;68368;51.728;5.248;2024-02-21T17:55:32;100385.42;;;7.77;100.00
78892;BME280;68368;51.728;5.248;2024-02-21T17:57:34;100379.07;;;7.77;100.00
78892;BME280;68368;51.728;5.248;2024-02-21T17:59:40;100376.24;;;7.77;100.00
78892;BME280;68368;51.728;5.248;2024-02-21T18:01:43;100372.89;;;7.77;100.00
78892;BME280;68368;51.728;5.248;2024-02-21T18:03:46;100368.65;;;7.77;100.00
78892;BME280;68368;51.728;5.248;2024-02-21T18:05:49;100359.63;;;7.77;100.00
78892;BME280;68368;51.728;5.248;2024-02-21T18:07:52;100361.40;;;7.77;100.00
78892;BME280;68368;51.728;5.248;2024-02-21T18:09:55;100355.55;;;7.76;100.00
78892;BME280;68368;51.728;5.248;2024-02-21T18:11:58;100359.27;;;7.76;100.00
78892;BME280;68368;51.728;5.248;2024-02-21T18:14:01;100350.08;;;7.76;100.00
78892;BME280;68368;51.728;5.248;2024-02-21T18:16:08;100343.02;;;7.76;100.00
78892;BME280;68368;51.728;5.248;2024-02-21T18:18:11;100346.20;;;7.76;100.00
78892;BME280;68368;51.728;5.248;2024-02-21T18:20:14;100343.55;;;7.76;100.00
78892;BME280;68368;51.728;5.248;2024-02-21T18:22:16;100343.20;;;7.76;100.00
78892;BME280;68368;51.728;5.248;2024-02-21T18:24:19;100335.77;;;7.76;100.00
78892;BME280;68368;51.728;5.248;2024-02-21T18:26:25;100329.59;;;7.77;100.00
78892;BME280;68368;51.728;5.248;2024-02-21T18:28:30;100323.23;;;7.76;100.00
78892;BME280;68368;51.728;5.248;2024-02-21T18:30:34;100318.82;;;7.77;100.00
78892;BME280;68368;51.728;5.248;2024-02-21T18:32:39;100315.98;;;7.77;100.00
78892;BME280;68368;51.728;5.248;2024-02-21T18:34:42;100309.98;;;7.77;100.00
78892;BME280;68368;51.728;5.248;2024-02-21T18:36:45;100308.21;;;7.78;100.00
78892;BME280;68368;51.728;5.248;2024-02-21T18:38:48;100303.60;;;7.78;100.00
78892;BME280;68368;51.728;5.248;2024-02-21T18:40:51;100297.06;;;7.79;100.00
78892;BME280;68368;51.728;5.248;2024-02-21T18:42:54;100292.47;;;7.79;100.00
78892;BME280;68368;51.728;5.248;2024-02-21T18:44:57;100286.45;;;7.80;100.00
78892;BME280;68368;51.728;5.248;2024-02-21T18:46:59;100285.73;;;7.81;100.00
78892;BME280;68368;51.728;5.248;2024-02-21T18:49:02;100272.84;;;7.81;100.00
78892;BME280;68368;51.728;5.248;2024-02-21T18:51:06;100274.07;;;7.82;100.00
78892;BME280;68368;51.728;5.248;2024-02-21T18:53:11;100270.17;;;7.83;100.00
78892;BME280;68368;51.728;5.248;2024-02-21T18:55:14;100269.64;;;7.83;100.00
78892;BME280;68368;51.728;5.248;2024-02-21T18:57:19;100265.39;;;7.84;100.00
78892;BME280;68368;51.728;5.248;2024-02-21T18:59:22;100259.56;;;7.84;100.00
78892;BME280;68368;51.728;5.248;2024-02-21T19:01:29;100253.20;;;7.85;100.00
78892;BME280;68368;51.728;5.248;2024-02-21T19:03:33;100253.20;;;7.86;100.00
78892;BME280;68368;51.728;5.248;2024-02-21T19:05:36;100248.95;;;7.86;100.00
78892;BME280;68368;51.728;5.248;2024-02-21T19:07:40;100252.46;;;7.87;100.00
78892;BME280;68368;51.728;5.248;2024-02-21T19:09:44;100248.58;;;7.88;100.00
78892;BME280;68368;51.728;5.248;2024-02-21T19:11:47;100239.91;;;7.89;100.00
78892;BME280;68368;51.728;5.248;2024-02-21T19:13:50;100243.95;;;7.90;100.00
78892;BME280;68368;51.728;5.248;2024-02-21T19:15:53;100240.95;;;7.91;100.00
78892;BME280;68368;51.728;5.248;2024-02-21T19:17:56;100243.06;;;7.92;100.00
78892;BME280;68368;51.728;5.248;2024-02-21T19:20:00;100234.55;;;7.93;100.00
78892;BME280;68368;51.728;5.248;2024-02-21T19:22:03;100228.89;;;7.94;100.00
78892;BME280;68368;51.728;5.248;2024-02-21T19:24:06;100233.67;;;7.94;100.00
78892;BME280;68368;51.728;5.248;2024-02-21T19:26:10;100226.07;;;7.96;100.00
78892;BME280;68368;51.728;5.248;2024-02-21T19:28:14;100228.52;;;7.96;100.00
78892;BME280;68368;51.728;5.248;2024-02-21T19:30:18;100226.23;;;7.96;100.00
78892;BME280;68368;51.728;5.248;2024-02-21T19:32:21;100217.58;;;7.96;100.00
78892;BME280;68368;51.728;5.248;2024-02-21T19:34:26;100211.02;;;7.98;100.00
78892;BME280;68368;51.728;5.248;2024-02-21T19:36:29;100208.38;;;7.98;100.00
78892;BME280;68368;51.728;5.248;2024-02-21T19:38:33;100199.36;;;7.98;100.00
78892;BME280;68368;51.728;5.248;2024-02-21T19:40:36;100195.30;;;7.98;100.00
78892;BME280;68368;51.728;5.248;2024-02-21T19:42:39;100188.74;;;7.99;100.00
78892;BME280;68368;51.728;5.248;2024-02-21T19:44:42;100190.33;;;7.99;100.00
78892;BME280;68368;51.728;5.248;2024-02-21T19:46:45;100179.73;;;7.99;100.00
78892;BME280;68368;51.728;5.248;2024-02-21T19:48:48;100180.43;;;7.99;100.00
78892;BME280;68368;51.728;5.248;2024-02-21T19:50:53;100179.36;;;7.99;100.00
78892;BME280;68368;51.728;5.248;2024-02-21T19:52:57;100168.23;;;8.00;100.00
78892;BME280;68368;51.728;5.248;2024-02-21T19:54:59;100161.51;;;8.00;100.00
78892;BME280;68368;51.728;5.248;2024-02-21T19:57:04;100151.27;;;8.01;100.00
78892;BME280;68368;51.728;5.248;2024-02-21T19:59:07;100149.66;;;8.01;100.00
78892;BME280;68368;51.728;5.248;2024-02-21T20:01:14;100141.52;;;8.02;100.00
78892;BME280;68368;51.728;5.248;2024-02-21T20:03:18;100138.16;;;8.01;100.00
78892;BME280;68368;51.728;5.248;2024-02-21T20:05:21;100138.67;;;8.02;100.00
78892;BME280;68368;51.728;5.248;2024-02-21T20:07:24;100130.71;;;8.03;100.00
78892;BME280;68368;51.728;5.248;2024-02-21T20:09:27;100130.02;;;8.03;100.00
78892;BME280;68368;51.728;5.248;2024-02-21T20:11:30;100126.81;;;8.05;100.00
78892;BME280;68368;51.728;5.248;2024-02-21T20:13:35;100126.45;;;8.05;100.00
78892;BME280;68368;51.728;5.248;2024-02-21T20:15:38;100123.80;;;8.06;100.00
78892;BME280;68368;51.728;5.248;2024-02-21T20:17:42;100115.66;;;8.07;100.00
78892;BME280;68368;51.728;5.248;2024-02-21T20:19:45;100116.54;;;8.07;100.00
78892;BME280;68368;51.728;5.248;2024-02-21T20:21:48;100111.93;;;8.08;100.00
78892;BME280;68368;51.728;5.248;2024-02-21T20:23:55;100103.80;;;8.09;100.00
78892;BME280;68368;51.728;5.248;2024-02-21T20:25:58;100099.73;;;8.09;100.00
78892;BME280;68368;51.728;5.248;2024-02-21T20:28:01;100096.54;;;8.10;100.00
78892;BME280;68368;51.728;5.248;2024-02-21T20:30:08;100092.63;;;8.11;100.00
78892;BME280;68368;51.728;5.248;2024-02-21T20:32:10;100088.39;;;8.12;100.00
78892;BME280;68368;51.728;5.248;2024-02-21T20:34:15;100084.14;;;8.12;100.00
78892;BME280;68368;51.728;5.248;2024-02-21T20:36:20;100081.83;;;8.13;100.00
78892;BME280;68368;51.728;5.248;2024-02-21T20:38:26;100077.92;;;8.13;100.00
78892;BME280;68368;51.728;5.248;2024-02-21T20:40:36;100072.09;;;8.14;100.00
78892;BME280;68368;51.728;5.248;2024-02-21T20:42:39;100068.20;;;8.15;100.00
78892;BME280;68368;51.728;5.248;2024-02-21T20:44:42;100063.59;;;8.15;100.00
78892;BME280;68368;51.728;5.248;2024-02-21T20:46:45;100063.21;;;8.16;100.00
78892;BME280;68368;51.728;5.248;2024-02-21T20:48:48;100061.98;;;8.17;100.00
78892;BME280;68368;51.728;5.248;2024-02-21T20:50:52;100061.26;;;8.18;100.00
78892;BME280;68368;51.728;5.248;2024-02-21T20:52:55;100047.46;;;8.18;100.00
78892;BME280;68368;51.728;5.248;2024-02-21T20:54:59;100050.98;;;8.19;100.00
78892;BME280;68368;51.728;5.248;2024-02-21T20:57:04;100046.73;;;8.20;100.00
78892;BME280;68368;51.728;5.248;2024-02-21T20:59:07;100046.18;;;8.21;100.00
78892;BME280;68368;51.728;5.248;2024-02-21T21:01:11;100041.77;;;8.20;100.00
78892;BME280;68368;51.728;5.248;2024-02-21T21:03:14;100042.11;;;8.21;100.00
78892;BME280;68368;51.728;5.248;2024-02-21T21:05:18;100036.09;;;8.22;100.00
78892;BME280;68368;51.728;5.248;2024-02-21T21:07:24;100039.80;;;8.23;100.00
78892;BME280;68368;51.728;5.248;2024-02-21T21:09:27;100038.91;;;8.23;100.00
78892;BME280;68368;51.728;5.248;2024-02-21T21:11:30;100038.55;;;8.24;100.00
78892;BME280;68368;51.728;5.248;2024-02-21T21:13:35;100039.06;;;8.25;100.00
78892;BME280;68368;51.728;5.248;2024-02-21T21:15:39;100031.80;;;8.26;100.00
78892;BME280;68368;51.728;5.248;2024-02-21T21:17:42;100027.20;;;8.27;100.00
78892;BME280;68368;51.728;5.248;2024-02-21T21:19:45;100028.42;;;8.27;100.00
78892;BME280;68368;51.728;5.248;2024-02-21T21:21:48;100027.51;;;8.28;100.00
78892;BME280;68368;51.728;5.248;2024-02-21T21:23:51;100026.45;;;8.29;100.00
78892;BME280;68368;51.728;5.248;2024-02-21T21:25:54;100022.72;;;8.30;100.00
78892;BME280;68368;51.728;5.248;2024-02-21T21:27:57;100025.17;;;8.32;100.00